Time;durP1;ratioP1;P1;durP2;ratioP2;P2;SDS_P1;SDS_P2;PMS_P1;PMS_P2;Temp;Humidity;BMP_temperature;BMP_pressure;BME280_temperature;BME280_humidity;BME280_pressure;Samples;Min_cycle;Max_cycle;Signal;HPM_P1;HPM_P2
2021/06/26 00:00:11;;;;;;;;;;;17.60;99.90;;;;;;5024470;28;19968;-69
2021/06/26 00:02:38;;;;;;;;;;;17.60;99.90;;;;;;5026616;28;19932;-68
2021/06/26 00:05:06;;;;;;;;;;;17.70;99.90;;;;;;5027588;28;19991;-68
2021/06/26 00:07:33;;;;;;;;;;;17.60;99.90;;;;;;5022505;28;19929;-68
2021/06/26 00:10:00;;;;;;;;;;;17.60;99.90;;;;;;5024237;28;19933;-68
2021/06/26 00:12:27;;;;;;;;;;;17.50;99.90;;;;;;5025565;28;19931;-67
2021/06/26 00:14:54;;;;;;;;;;;17.60;99.90;;;;;;5040547;28;19933;-68
2021/06/26 00:17:20;;;;;;;;;;;17.90;99.90;;;;;;5022896;28;19960;-71
2021/06/26 00:19:47;;;;;;;;;;;18.00;99.90;;;;;;5024457;28;19983;-68
2021/06/26 00:22:14;;;;;;;;;;;18.00;99.90;;;;;;5024020;28;20337;-67
2021/06/26 00:24:41;;;;;;;;;;;18.20;99.90;;;;;;5031060;28;19979;-68
2021/06/26 00:27:08;;;;;;;;;;;18.10;99.90;;;;;;5027846;28;19929;-68
2021/06/26 00:29:35;;;;;;;;;;;18.00;99.90;;;;;;5033709;28;19929;-69
2021/06/26 00:32:02;;;;;;;;;;;18.00;99.90;;;;;;5025680;28;20021;-69
2021/06/26 00:34:29;;;;;;;;;;;18.20;99.90;;;;;;5029099;28;19925;-68
2021/06/26 00:36:56;;;;;;;;;;;18.20;99.90;;;;;;5032906;28;19970;-68
2021/06/26 00:39:23;;;;;;;;;;;18.20;99.90;;;;;;5029945;28;20519;-68
2021/06/26 00:41:50;;;;;;;;;;;18.20;99.90;;;;;;5026095;28;20368;-70
2021/06/26 00:44:17;;;;;;;;;;;18.20;99.90;;;;;;5043943;28;20017;-68
2021/06/26 00:46:43;;;;;;;;;;;18.20;99.90;;;;;;5028399;28;19971;-68
2021/06/26 00:49:10;;;;;;;;;;;18.00;99.90;;;;;;5027279;28;19936;-69
2021/06/26 00:51:37;;;;;;;;;;;17.90;99.90;;;;;;5029863;28;20028;-68
2021/06/26 00:54:04;;;;;;;;;;;18.10;99.90;;;;;;5038920;28;20029;-67
2021/06/26 00:56:30;;;;;;;;;;;18.20;99.90;;;;;;5028352;28;19972;-68
2021/06/26 00:59:08;;;;;;;;;;;18.20;99.90;;;;;;5027650;28;20015;-67
2021/06/26 01:01:35;;;;;;;;;;;18.30;99.90;;;;;;5026352;28;20361;-67
2021/06/26 01:04:02;;;;;;;;;;;18.20;99.90;;;;;;5028004;28;19925;-67
2021/06/26 01:06:28;;;;;;;;;;;18.20;99.90;;;;;;5022625;28;20042;-68
2021/06/26 01:08:55;;;;;;;;;;;18.20;99.90;;;;;;5027442;28;20450;-68
2021/06/26 01:11:22;;;;;;;;;;;18.10;99.90;;;;;;5031214;28;19974;-67
2021/06/26 01:13:49;;;;;;;;;;;17.90;99.90;;;;;;5031877;28;20063;-68
2021/06/26 01:16:15;;;;;;;;;;;17.90;99.90;;;;;;5026183;28;19967;-67
2021/06/26 01:18:43;;;;;;;;;;;17.70;99.90;;;;;;5045889;28;20020;-67
2021/06/26 01:21:10;;;;;;;;;;;17.50;99.90;;;;;;5030099;28;19995;-67
2021/06/26 01:23:49;;;;;;;;;;;17.40;99.90;;;;;;5026866;28;19937;-68
2021/06/26 01:26:16;;;;;;;;;;;17.30;99.90;;;;;;5042820;28;19983;-69
2021/06/26 01:28:43;;;;;;;;;;;17.30;99.90;;;;;;5025748;28;20327;-68
2021/06/26 01:31:10;;;;;;;;;;;17.30;99.90;;;;;;5028196;28;19972;-68
2021/06/26 01:33:36;;;;;;;;;;;17.20;99.90;;;;;;5027826;28;20043;-69
2021/06/26 01:36:03;;;;;;;;;;;17.20;99.90;;;;;;5027997;28;19972;-69
2021/06/26 01:38:30;;;;;;;;;;;17.10;99.90;;;;;;5026723;28;20024;-68
2021/06/26 01:40:57;;;;;;;;;;;17.20;99.90;;;;;;5059063;28;20011;-67
2021/06/26 01:43:23;;;;;;;;;;;17.10;99.90;;;;;;5030587;28;19975;-69
2021/06/26 01:45:50;;;;;;;;;;;17.10;99.90;;;;;;5031595;28;20012;-68
2021/06/26 01:48:17;;;;;;;;;;;17.10;99.90;;;;;;5025643;28;19953;-68
2021/06/26 01:50:44;;;;;;;;;;;17.10;99.90;;;;;;5027585;28;19965;-67
2021/06/26 01:53:15;;;;;;;;;;;17.10;99.90;;;;;;5028918;28;19968;-67
2021/06/26 01:55:41;;;;;;;;;;;17.10;99.90;;;;;;5025985;28;19971;-68
2021/06/26 01:58:08;;;;;;;;;;;17.10;99.90;;;;;;5025707;28;20335;-68
2021/06/26 02:00:35;;;;;;;;;;;17.10;99.90;;;;;;5031509;28;20012;-67
2021/06/26 02:03:02;;;;;;;;;;;17.10;99.90;;;;;;5028162;28;19979;-67
2021/06/26 02:05:29;;;;;;;;;;;17.10;99.90;;;;;;5027027;28;19968;-67
2021/06/26 02:07:58;;;;;;;;;;;17.10;99.90;;;;;;5027574;28;19971;-67
2021/06/26 02:10:25;;;;;;;;;;;17.10;99.90;;;;;;5026759;28;20388;-68
2021/06/26 02:12:51;;;;;;;;;;;17.10;99.90;;;;;;5025840;28;20398;-67
2021/06/26 02:15:18;;;;;;;;;;;17.10;99.90;;;;;;5028581;28;19925;-67
2021/06/26 02:17:45;;;;;;;;;;;17.10;99.90;;;;;;5027098;28;20030;-72
2021/06/26 02:20:12;;;;;;;;;;;17.10;99.90;;;;;;5028132;28;20015;-71
2021/06/26 02:22:41;;;;;;;;;;;17.10;99.90;;;;;;5027605;28;20032;-72
2021/06/26 02:25:09;;;;;;;;;;;17.10;99.90;;;;;;5025842;28;19960;-71
2021/06/26 02:27:35;;;;;;;;;;;17.10;99.90;;;;;;5027618;28;19929;-71
2021/06/26 02:30:03;;;;;;;;;;;17.10;99.90;;;;;;5026753;28;20481;-72
2021/06/26 02:32:30;;;;;;;;;;;17.10;99.90;;;;;;5027425;28;20012;-72
2021/06/26 02:34:57;;;;;;;;;;;17.20;99.90;;;;;;5025276;28;19929;-72
2021/06/26 02:37:23;;;;;;;;;;;17.30;99.90;;;;;;5024030;28;20020;-71
2021/06/26 02:39:50;;;;;;;;;;;17.30;99.90;;;;;;5028294;28;19996;-71
2021/06/26 02:42:17;;;;;;;;;;;17.20;99.90;;;;;;5026635;28;20548;-71
2021/06/26 02:44:44;;;;;;;;;;;17.10;99.90;;;;;;5030203;28;20316;-71
2021/06/26 02:47:11;;;;;;;;;;;17.00;99.90;;;;;;5019674;28;20052;-71
2021/06/26 02:49:38;;;;;;;;;;;17.00;99.90;;;;;;5023193;28;20023;-71
2021/06/26 02:52:07;;;;;;;;;;;17.10;99.90;;;;;;5026226;28;20019;-71
2021/06/26 02:54:34;;;;;;;;;;;17.30;99.90;;;;;;5026727;28;20055;-71
2021/06/26 02:57:01;;;;;;;;;;;17.30;99.90;;;;;;5024233;28;20011;-71
2021/06/26 02:59:28;;;;;;;;;;;17.50;99.90;;;;;;5025685;28;19937;-70
2021/06/26 03:01:55;;;;;;;;;;;17.60;99.90;;;;;;5031750;28;19978;-71
2021/06/26 03:04:22;;;;;;;;;;;17.30;99.90;;;;;;5024360;28;19968;-71
2021/06/26 03:06:49;;;;;;;;;;;17.10;99.90;;;;;;5026274;28;19925;-71
2021/06/26 03:09:15;;;;;;;;;;;17.00;99.90;;;;;;5024145;28;20015;-69
2021/06/26 03:11:42;;;;;;;;;;;16.90;99.90;;;;;;5022004;28;20368;-70
2021/06/26 03:14:09;;;;;;;;;;;16.90;99.90;;;;;;5029420;28;20030;-72
2021/06/26 03:16:36;;;;;;;;;;;16.90;99.90;;;;;;5023609;28;20020;-71
2021/06/26 03:19:03;;;;;;;;;;;16.80;99.90;;;;;;5026355;28;19948;-71
2021/06/26 03:21:29;;;;;;;;;;;16.80;99.90;;;;;;5026047;28;19960;-71
2021/06/26 03:23:56;;;;;;;;;;;16.90;99.90;;;;;;5023761;28;19972;-71
2021/06/26 03:26:23;;;;;;;;;;;17.10;99.90;;;;;;5025105;28;20012;-71
2021/06/26 03:28:50;;;;;;;;;;;17.10;99.90;;;;;;5024403;28;20005;-71
2021/06/26 03:31:17;;;;;;;;;;;17.30;99.90;;;;;;5024019;28;19933;-71
2021/06/26 03:33:45;;;;;;;;;;;17.40;99.90;;;;;;5026579;28;19944;-71
2021/06/26 03:36:13;;;;;;;;;;;17.50;99.90;;;;;;5024495;28;20034;-71
2021/06/26 03:38:40;;;;;;;;;;;17.60;99.90;;;;;;5023537;28;20015;-71
2021/06/26 03:41:07;;;;;;;;;;;17.60;99.90;;;;;;5023971;28;19975;-71
2021/06/26 03:43:33;;;;;;;;;;;17.50;99.90;;;;;;5024603;28;19929;-71
2021/06/26 03:46:00;;;;;;;;;;;17.40;99.90;;;;;;5025559;28;19979;-71
2021/06/26 03:48:27;;;;;;;;;;;17.40;99.90;;;;;;5025209;28;19991;-72
2021/06/26 03:50:58;;;;;;;;;;;17.30;99.90;;;;;;5027258;28;20371;-72
2021/06/26 03:53:28;;;;;;;;;;;17.30;99.90;;;;;;5024395;28;20012;-68
2021/06/26 03:55:55;;;;;;;;;;;17.20;99.90;;;;;;5022008;28;19972;-67
2021/06/26 03:58:22;;;;;;;;;;;17.10;99.90;;;;;;5024964;28;20031;-67
2021/06/26 04:00:49;;;;;;;;;;;17.10;99.90;;;;;;5024515;28;20030;-67
2021/06/26 04:03:16;;;;;;;;;;;17.00;99.90;;;;;;5025880;28;20000;-66
2021/06/26 04:05:43;;;;;;;;;;;16.90;99.90;;;;;;5026327;28;20352;-66
2021/06/26 04:08:10;;;;;;;;;;;16.90;99.90;;;;;;5028409;28;20004;-66
2021/06/26 04:10:37;;;;;;;;;;;17.10;99.90;;;;;;5024165;28;20023;-67
2021/06/26 04:13:04;;;;;;;;;;;17.00;99.90;;;;;;5025561;28;20952;-68
2021/06/26 04:15:32;;;;;;;;;;;17.00;99.90;;;;;;5027885;28;19925;-66
2021/06/26 04:17:59;;;;;;;;;;;17.10;99.90;;;;;;5023825;28;20016;-66
2021/06/26 04:20:26;;;;;;;;;;;17.10;99.90;;;;;;5025105;28;20287;-66
2021/06/26 04:22:53;;;;;;;;;;;17.20;99.90;;;;;;5025112;28;19925;-66
2021/06/26 04:25:20;;;;;;;;;;;17.30;99.90;;;;;;5024709;28;20169;-66
2021/06/26 04:27:47;;;;;;;;;;;17.30;99.90;;;;;;5025357;28;19957;-69
2021/06/26 04:30:14;;;;;;;;;;;17.30;99.90;;;;;;5022583;28;19968;-66
2021/06/26 04:32:41;;;;;;;;;;;17.40;99.90;;;;;;5024411;28;20016;-66
2021/06/26 04:35:09;;;;;;;;;;;17.40;99.90;;;;;;5025702;28;19948;-67
2021/06/26 04:37:36;;;;;;;;;;;17.50;99.90;;;;;;5023002;28;19929;-66
2021/06/26 04:40:03;;;;;;;;;;;17.50;99.90;;;;;;5055746;28;20412;-67
2021/06/26 04:42:30;;;;;;;;;;;17.70;99.90;;;;;;5027400;28;20030;-66
2021/06/26 04:44:57;;;;;;;;;;;17.60;99.90;;;;;;5026311;28;20595;-68
2021/06/26 04:47:24;;;;;;;;;;;17.40;99.90;;;;;;5029271;28;20020;-66
2021/06/26 04:49:51;;;;;;;;;;;17.40;99.90;;;;;;5022451;28;19972;-66
2021/06/26 04:52:18;;;;;;;;;;;17.40;99.90;;;;;;5027020;28;19975;-68
2021/06/26 04:54:45;;;;;;;;;;;17.50;99.90;;;;;;5026768;28;19972;-67
2021/06/26 04:57:11;;;;;;;;;;;17.70;99.90;;;;;;5023629;28;20020;-67
2021/06/26 04:59:38;;;;;;;;;;;18.00;99.90;;;;;;5024568;28;19933;-67
2021/06/26 05:02:04;;;;;;;;;;;18.30;99.90;;;;;;5056252;28;20466;-68
2021/06/26 05:04:31;;;;;;;;;;;18.70;99.90;;;;;;5022684;28;19983;-68
2021/06/26 05:06:58;;;;;;;;;;;19.00;99.90;;;;;;5021690;28;20036;-68
2021/06/26 05:09:24;;;;;;;;;;;19.10;99.90;;;;;;5024189;28;19935;-67
2021/06/26 05:11:51;;;;;;;;;;;19.60;99.90;;;;;;5024484;28;20381;-68
2021/06/26 05:14:18;;;;;;;;;;;19.90;99.90;;;;;;5027775;28;19957;-66
2021/06/26 05:16:45;;;;;;;;;;;20.00;99.90;;;;;;5026316;28;20435;-68
2021/06/26 05:19:11;;;;;;;;;;;20.10;99.90;;;;;;5027385;28;19964;-66
2021/06/26 05:21:38;;;;;;;;;;;20.70;99.90;;;;;;5028685;28;20384;-66
2021/06/26 05:24:05;;;;;;;;;;;21.30;99.90;;;;;;5026199;28;20008;-67
2021/06/26 05:26:32;;;;;;;;;;;21.80;99.90;;;;;;5028724;28;19939;-66
2021/06/26 05:28:58;;;;;;;;;;;22.30;99.90;;;;;;5027559;28;20347;-67
2021/06/26 05:31:25;;;;;;;;;;;22.90;99.90;;;;;;5025522;28;20020;-67
2021/06/26 05:33:52;;;;;;;;;;;23.20;99.90;;;;;;5025887;28;19953;-68
2021/06/26 05:36:19;;;;;;;;;;;23.20;99.90;;;;;;5026773;28;19972;-66
2021/06/26 05:38:45;;;;;;;;;;;23.40;99.90;;;;;;5024740;28;19943;-70
2021/06/26 05:41:12;;;;;;;;;;;23.80;99.60;;;;;;5025478;28;20337;-71
2021/06/26 05:43:39;;;;;;;;;;;24.40;97.90;;;;;;5024337;28;20020;-71
2021/06/26 05:46:06;;;;;;;;;;;23.80;97.70;;;;;;5026318;28;19960;-71
2021/06/26 05:48:32;;;;;;;;;;;23.20;99.00;;;;;;5025339;28;20842;-71
2021/06/26 05:50:59;;;;;;;;;;;21.10;99.90;;;;;;5027403;28;20028;-71
2021/06/26 05:53:26;;;;;;;;;;;20.70;99.90;;;;;;5027831;28;19944;-72
2021/06/26 05:55:59;;;;;;;;;;;20.00;99.90;;;;;;5027022;28;20023;-71
2021/06/26 05:58:29;;;;;;;;;;;20.10;99.90;;;;;;5027655;28;19969;-71
2021/06/26 06:00:56;;;;;;;;;;;19.70;99.90;;;;;;5027165;28;20124;-72
2021/06/26 06:03:23;;;;;;;;;;;19.90;99.90;;;;;;5027231;28;19925;-68
2021/06/26 06:05:51;;;;;;;;;;;19.80;99.90;;;;;;5029460;28;19964;-68
2021/06/26 06:08:18;;;;;;;;;;;19.80;99.90;;;;;;5028015;28;20003;-71
2021/06/26 06:10:45;;;;;;;;;;;19.40;99.90;;;;;;5024431;28;19965;-70
2021/06/26 06:13:21;;;;;;;;;;;19.50;99.90;;;;;;5025250;28;20025;-72
2021/06/26 06:15:50;;;;;;;;;;;19.60;99.90;;;;;;5027446;28;20632;-72
2021/06/26 06:18:18;;;;;;;;;;;19.30;99.90;;;;;;5028236;28;20023;-72
2021/06/26 06:20:46;;;;;;;;;;;19.50;99.90;;;;;;5016766;28;20372;-72
2021/06/26 06:23:13;;;;;;;;;;;19.60;99.90;;;;;;5027257;28;19987;-72
2021/06/26 06:25:40;;;;;;;;;;;19.90;99.90;;;;;;5056107;28;20028;-72
2021/06/26 06:28:07;;;;;;;;;;;20.00;99.90;;;;;;5025616;28;19932;-72
2021/06/26 06:30:35;;;;;;;;;;;19.60;99.90;;;;;;5027425;28;20024;-72
2021/06/26 06:33:03;;;;;;;;;;;19.80;99.90;;;;;;5039845;28;19925;-72
2021/06/26 06:35:30;;;;;;;;;;;21.70;99.90;;;;;;5025839;28;19925;-72
2021/06/26 06:37:58;;;;;;;;;;;21.10;99.90;;;;;;5025311;28;19928;-69
2021/06/26 06:40:25;;;;;;;;;;;20.90;99.90;;;;;;5025966;28;19929;-69
2021/06/26 06:42:51;;;;;;;;;;;21.10;99.90;;;;;;5026938;28;19933;-68
2021/06/26 06:45:18;;;;;;;;;;;21.30;99.90;;;;;;5022487;28;19972;-67
2021/06/26 06:47:45;;;;;;;;;;;21.10;99.90;;;;;;5026403;28;19986;-67
2021/06/26 06:50:12;;;;;;;;;;;21.10;99.90;;;;;;5036896;28;20391;-68
2021/06/26 06:52:39;;;;;;;;;;;23.40;99.90;;;;;;5028189;28;20012;-67
2021/06/26 06:55:06;;;;;;;;;;;25.50;95.70;;;;;;5023387;28;20016;-67
2021/06/26 06:57:33;;;;;;;;;;;23.10;97.10;;;;;;5026868;28;20423;-67
2021/06/26 07:00:00;;;;;;;;;;;21.70;99.90;;;;;;5023359;28;19959;-68
2021/06/26 07:02:27;;;;;;;;;;;21.20;99.90;;;;;;5024703;28;20007;-67
2021/06/26 07:04:53;;;;;;;;;;;21.10;99.90;;;;;;5026535;28;20047;-69
2021/06/26 07:07:20;;;;;;;;;;;21.00;99.90;;;;;;5025940;28;20008;-67
2021/06/26 07:09:47;;;;;;;;;;;20.90;99.90;;;;;;5040001;28;20013;-68
2021/06/26 07:12:13;;;;;;;;;;;20.80;99.90;;;;;;5025883;28;19933;-68
2021/06/26 07:14:40;;;;;;;;;;;20.90;99.90;;;;;;5025762;28;20286;-68
2021/06/26 07:17:07;;;;;;;;;;;20.70;99.90;;;;;;5026734;28;20030;-69
2021/06/26 07:19:34;;;;;;;;;;;21.10;99.90;;;;;;5027625;28;19933;-69
2021/06/26 07:22:05;;;;;;;;;;;22.10;99.90;;;;;;5015189;28;20563;-72
2021/06/26 07:24:32;;;;;;;;;;;23.80;97.00;;;;;;5029820;28;19925;-72
2021/06/26 07:26:58;;;;;;;;;;;23.60;95.50;;;;;;5025288;28;19971;-72
2021/06/26 07:29:25;;;;;;;;;;;24.30;92.90;;;;;;5026185;28;20358;-71
2021/06/26 07:31:52;;;;;;;;;;;23.20;94.60;;;;;;5025471;28;20024;-71
2021/06/26 07:34:19;;;;;;;;;;;22.30;96.40;;;;;;5027656;28;20779;-72
2021/06/26 07:36:45;;;;;;;;;;;22.10;97.90;;;;;;5025337;28;19929;-72
2021/06/26 07:39:12;;;;;;;;;;;22.00;97.70;;;;;;5026724;28;19971;-72
2021/06/26 07:41:39;;;;;;;;;;;21.90;97.70;;;;;;5023965;28;19972;-71
2021/06/26 07:44:05;;;;;;;;;;;22.10;98.00;;;;;;5041872;28;20045;-73
2021/06/26 07:46:32;;;;;;;;;;;21.70;97.50;;;;;;5023716;28;20197;-72
2021/06/26 07:48:59;;;;;;;;;;;21.70;97.40;;;;;;5023258;28;19940;-72
2021/06/26 07:51:26;;;;;;;;;;;21.30;97.10;;;;;;5024679;28;19951;-72
2021/06/26 07:53:53;;;;;;;;;;;21.20;97.70;;;;;;5024246;28;20036;-71
2021/06/26 07:56:19;;;;;;;;;;;21.20;97.60;;;;;;5024462;28;20024;-71
2021/06/26 07:58:46;;;;;;;;;;;21.40;96.80;;;;;;5040063;28;19928;-72
2021/06/26 08:01:14;;;;;;;;;;;21.40;95.20;;;;;;5022082;28;19964;-72
2021/06/26 08:03:41;;;;;;;;;;;21.40;96.00;;;;;;5036695;28;20349;-72
2021/06/26 08:06:07;;;;;;;;;;;21.30;95.30;;;;;;5023002;28;19967;-72
2021/06/26 08:08:35;;;;;;;;;;;21.30;96.50;;;;;;5019788;28;19941;-70
2021/06/26 08:11:02;;;;;;;;;;;21.30;97.10;;;;;;5028035;28;20009;-72
2021/06/26 08:13:29;;;;;;;;;;;21.20;97.00;;;;;;5024157;28;19926;-72
2021/06/26 08:15:55;;;;;;;;;;;21.30;96.90;;;;;;5022515;28;20116;-71
2021/06/26 08:18:22;;;;;;;;;;;21.20;97.10;;;;;;5027477;28;20019;-72
2021/06/26 08:20:49;;;;;;;;;;;21.20;96.80;;;;;;5023166;28;20028;-72
2021/06/26 08:23:16;;;;;;;;;;;21.30;96.90;;;;;;5023792;28;20412;-72
2021/06/26 08:25:42;;;;;;;;;;;21.40;97.10;;;;;;5025167;28;19964;-72
2021/06/26 08:28:09;;;;;;;;;;;21.60;94.70;;;;;;5022702;28;20011;-72
2021/06/26 08:30:36;;;;;;;;;;;21.70;95.10;;;;;;5023552;28;19933;-71
2021/06/26 08:33:03;;;;;;;;;;;21.80;92.00;;;;;;5025325;28;20016;-72
2021/06/26 08:35:30;;;;;;;;;;;21.90;89.70;;;;;;5021601;28;19945;-73
2021/06/26 08:37:57;;;;;;;;;;;21.90;86.90;;;;;;5026557;28;19935;-71
2021/06/26 08:40:23;;;;;;;;;;;22.00;89.60;;;;;;5024902;28;20432;-74
2021/06/26 08:42:52;;;;;;;;;;;22.00;86.90;;;;;;5025276;28;20434;-72
2021/06/26 08:45:20;;;;;;;;;;;22.00;88.40;;;;;;5022397;28;19930;-73
2021/06/26 08:47:50;;;;;;;;;;;22.10;90.10;;;;;;5027204;28;20003;-73
2021/06/26 08:50:18;;;;;;;;;;;22.30;91.20;;;;;;5029856;28;19979;-73
2021/06/26 08:52:45;;;;;;;;;;;22.00;92.10;;;;;;5026654;28;20316;-75
2021/06/26 08:55:12;;;;;;;;;;;22.20;91.00;;;;;;5028497;28;19925;-74
2021/06/26 08:57:40;;;;;;;;;;;22.00;91.20;;;;;;5030490;28;20015;-74
2021/06/26 09:00:09;;;;;;;;;;;22.10;92.20;;;;;;5029771;28;20379;-74
2021/06/26 09:02:36;;;;;;;;;;;22.20;91.70;;;;;;5032702;28;20452;-73
2021/06/26 09:05:04;;;;;;;;;;;22.20;90.90;;;;;;5045678;28;19929;-73
2021/06/26 09:07:32;;;;;;;;;;;22.30;90.80;;;;;;5030391;28;20233;-74
2021/06/26 09:10:12;;;;;;;;;;;22.30;90.20;;;;;;5029291;28;19999;-73
2021/06/26 09:12:39;;;;;;;;;;;22.50;87.90;;;;;;5030256;28;20502;-74
2021/06/26 09:15:07;;;;;;;;;;;22.40;90.60;;;;;;5030520;28;20103;-73
2021/06/26 09:17:35;;;;;;;;;;;22.40;83.70;;;;;;5032470;28;19973;-75
2021/06/26 09:20:05;;;;;;;;;;;22.40;86.30;;;;;;5029553;28;19933;-74
2021/06/26 09:22:39;;;;;;;;;;;22.40;85.60;;;;;;5032517;28;19965;-74
2021/06/26 09:25:29;;;;;;;;;;;22.40;90.00;;;;;;5017934;28;20016;-73
2021/06/26 09:27:56;;;;;;;;;;;22.60;85.50;;;;;;5027401;28;19929;-73
2021/06/26 09:30:34;;;;;;;;;;;22.60;84.60;;;;;;5029062;28;19980;-73
2021/06/26 09:33:18;;;;;;;;;;;22.70;85.20;;;;;;5032103;28;20056;-74
2021/06/26 09:35:46;;;;;;;;;;;22.80;84.30;;;;;;5029534;28;19929;-75
2021/06/26 09:38:13;;;;;;;;;;;22.70;83.30;;;;;;5031505;28;19960;-73
2021/06/26 09:40:41;;;;;;;;;;;22.90;82.60;;;;;;5026696;28;20333;-74
2021/06/26 09:43:08;;;;;;;;;;;23.00;88.60;;;;;;5028428;28;19936;-73
2021/06/26 09:45:35;;;;;;;;;;;23.00;84.40;;;;;;5028605;28;19964;-73
2021/06/26 09:48:06;;;;;;;;;;;23.10;83.60;;;;;;5028459;28;19972;-77
2021/06/26 09:50:38;;;;;;;;;;;23.10;86.50;;;;;;5022541;28;20442;-76
2021/06/26 09:53:06;;;;;;;;;;;23.10;82.50;;;;;;5047825;28;20004;-77
2021/06/26 09:55:33;;;;;;;;;;;23.30;78.60;;;;;;5028421;28;19936;-75
2021/06/26 09:58:01;;;;;;;;;;;23.40;77.70;;;;;;5046623;28;19979;-75
2021/06/26 10:00:29;;;;;;;;;;;23.40;79.00;;;;;;5027045;28;19965;-76
2021/06/26 10:02:57;;;;;;;;;;;23.30;76.70;;;;;;5041405;28;20015;-75
2021/06/26 10:05:24;;;;;;;;;;;23.30;75.70;;;;;;5032254;28;19929;-75
2021/06/26 10:07:52;;;;;;;;;;;23.30;77.30;;;;;;5029136;28;19976;-76
2021/06/26 10:10:20;;;;;;;;;;;23.30;79.30;;;;;;5029045;28;19933;-78
2021/06/26 10:12:48;;;;;;;;;;;23.30;81.00;;;;;;5032318;28;19929;-76
2021/06/26 10:15:16;;;;;;;;;;;23.40;83.10;;;;;;5027025;28;20412;-79
2021/06/26 10:17:42;;;;;;;;;;;23.50;82.00;;;;;;5030113;28;19983;-75
2021/06/26 10:20:11;;;;;;;;;;;23.50;84.20;;;;;;5030826;28;19939;-77
2021/06/26 10:22:44;;;;;;;;;;;23.70;85.10;;;;;;5027179;28;19965;-75
2021/06/26 10:25:12;;;;;;;;;;;23.70;81.20;;;;;;5028857;28;19960;-75
2021/06/26 10:27:39;;;;;;;;;;;23.70;84.10;;;;;;5029278;28;20017;-75
2021/06/26 10:30:10;;;;;;;;;;;23.80;78.00;;;;;;5026326;28;19964;-74
2021/06/26 10:32:47;;;;;;;;;;;23.70;77.90;;;;;;5024603;28;20016;-77
2021/06/26 10:35:16;;;;;;;;;;;23.70;85.20;;;;;;5029841;28;19956;-81
2021/06/26 10:37:43;;;;;;;;;;;23.70;83.80;;;;;;5033026;28;19947;-85
2021/06/26 10:40:11;;;;;;;;;;;23.70;87.10;;;;;;5040352;28;19965;-84
2021/06/26 10:42:39;;;;;;;;;;;23.80;86.50;;;;;;5051316;28;19925;-82
2021/06/26 10:45:07;;;;;;;;;;;23.90;79.40;;;;;;5028345;28;20425;-78
2021/06/26 10:47:35;;;;;;;;;;;23.90;83.50;;;;;;5030831;28;20403;-77
2021/06/26 10:50:16;;;;;;;;;;;24.00;82.70;;;;;;5025358;28;20352;-76
2021/06/26 10:52:49;;;;;;;;;;;24.00;81.70;;;;;;5022168;28;19965;-77
2021/06/26 10:55:36;;;;;;;;;;;24.00;84.60;;;;;;5024962;28;20709;-76
2021/06/26 10:58:04;;;;;;;;;;;24.20;83.10;;;;;;5021415;28;19933;-75
2021/06/26 11:00:36;;;;;;;;;;;24.10;82.00;;;;;;5024143;28;19925;-76
2021/06/26 11:03:17;;;;;;;;;;;24.00;83.20;;;;;;5053358;28;19956;-76
2021/06/26 11:05:44;;;;;;;;;;;24.10;87.70;;;;;;5053818;28;20278;-72
2021/06/26 11:08:14;;;;;;;;;;;24.00;84.20;;;;;;5022831;28;20503;-72
2021/06/26 11:10:54;;;;;;;;;;;24.00;82.00;;;;;;5022584;28;19956;-72
2021/06/26 11:13:22;;;;;;;;;;;24.40;80.80;;;;;;5021716;28;20020;-73
2021/06/26 11:15:49;;;;;;;;;;;24.40;74.10;;;;;;5023009;28;19936;-73
2021/06/26 11:18:17;;;;;;;;;;;24.30;74.40;;;;;;5022778;28;19929;-71
2021/06/26 11:20:44;;;;;;;;;;;24.10;81.10;;;;;;5023202;28;19944;-71
2021/06/26 11:23:17;;;;;;;;;;;24.10;79.00;;;;;;5021779;28;20291;-72
2021/06/26 11:25:44;;;;;;;;;;;24.10;76.00;;;;;;5043227;28;20517;-72
2021/06/26 11:28:15;;;;;;;;;;;23.90;74.30;;;;;;5027419;28;19932;-72
2021/06/26 11:30:43;;;;;;;;;;;23.90;79.70;;;;;;5027474;28;20003;-72
2021/06/26 11:33:10;;;;;;;;;;;23.70;76.90;;;;;;5027940;28;19960;-72
2021/06/26 11:35:41;;;;;;;;;;;23.80;73.90;;;;;;5028029;28;19933;-73
2021/06/26 11:38:15;;;;;;;;;;;24.10;69.70;;;;;;5028782;28;20367;-72
2021/06/26 11:40:42;;;;;;;;;;;24.30;73.50;;;;;;5024539;28;20118;-71
2021/06/26 11:43:09;;;;;;;;;;;24.30;73.00;;;;;;5028025;28;20545;-72
2021/06/26 11:45:37;;;;;;;;;;;24.60;71.90;;;;;;5027272;28;19937;-71
2021/06/26 11:48:05;;;;;;;;;;;24.80;71.00;;;;;;5022550;28;19969;-71
2021/06/26 11:50:33;;;;;;;;;;;24.90;71.20;;;;;;5023713;28;20015;-71
2021/06/26 11:53:11;;;;;;;;;;;25.00;66.90;;;;;;5027046;28;19925;-71
2021/06/26 11:55:50;;;;;;;;;;;25.10;62.30;;;;;;5026874;28;19947;-72
2021/06/26 11:58:17;;;;;;;;;;;25.20;64.50;;;;;;5025728;28;19933;-71
2021/06/26 12:00:44;;;;;;;;;;;25.10;65.30;;;;;;5023952;28;19964;-71
2021/06/26 12:03:18;;;;;;;;;;;25.20;65.30;;;;;;5024824;28;19926;-71
2021/06/26 12:05:46;;;;;;;;;;;25.30;60.50;;;;;;5028133;28;19960;-70
2021/06/26 12:08:17;;;;;;;;;;;25.40;60.30;;;;;;5015785;28;20008;-71
2021/06/26 12:10:45;;;;;;;;;;;25.40;63.50;;;;;;5025523;28;19932;-71
2021/06/26 12:13:11;;;;;;;;;;;25.50;63.10;;;;;;5025011;28;19925;-72
2021/06/26 12:15:41;;;;;;;;;;;25.70;58.80;;;;;;5022462;28;19951;-71
2021/06/26 12:18:08;;;;;;;;;;;25.70;56.30;;;;;;5026785;28;19940;-72
2021/06/26 12:20:36;;;;;;;;;;;25.90;56.40;;;;;;5031328;28;19988;-70
2021/06/26 12:23:07;;;;;;;;;;;26.40;57.50;;;;;;5021146;28;19930;-71
2021/06/26 12:25:35;;;;;;;;;;;27.20;54.60;;;;;;5031929;28;19933;-71
2021/06/26 12:28:02;;;;;;;;;;;28.50;52.00;;;;;;5034662;28;19960;-72
2021/06/26 12:30:29;;;;;;;;;;;28.20;53.60;;;;;;5028384;28;19965;-71
2021/06/26 12:33:03;;;;;;;;;;;31.40;48.90;;;;;;5027786;28;19925;-71
2021/06/26 12:35:30;;;;;;;;;;;31.00;45.60;;;;;;5031627;28;20463;-71
2021/06/26 12:37:57;;;;;;;;;;;29.50;47.10;;;;;;5031217;28;19964;-70
2021/06/26 12:40:29;;;;;;;;;;;30.20;49.00;;;;;;5031899;28;20056;-71
2021/06/26 12:42:58;;;;;;;;;;;31.70;48.00;;;;;;5032285;28;20375;-72
2021/06/26 12:45:44;;;;;;;;;;;33.60;44.60;;;;;;5027531;28;20236;-71
2021/06/26 12:48:17;;;;;;;;;;;35.60;42.30;;;;;;5031832;28;20002;-73
2021/06/26 12:50:45;;;;;;;;;;;36.40;39.40;;;;;;5034515;28;19975;-75
2021/06/26 12:53:12;;;;;;;;;;;33.40;42.90;;;;;;5036976;28;19960;-74
2021/06/26 12:55:38;;;;;;;;;;;33.80;43.40;;;;;;5048458;28;19969;-74
2021/06/26 12:58:09;;;;;;;;;;;35.00;42.20;;;;;;5031810;28;20423;-75
2021/06/26 13:00:36;;;;;;;;;;;33.10;43.20;;;;;;5023788;28;20462;-74
2021/06/26 13:03:03;;;;;;;;;;;30.10;46.10;;;;;;5031606;28;19925;-74
2021/06/26 13:05:30;;;;;;;;;;;28.10;49.40;;;;;;5035632;28;20015;-74
2021/06/26 13:08:04;;;;;;;;;;;27.20;51.40;;;;;;5032777;28;20281;-73
2021/06/26 13:10:31;;;;;;;;;;;26.90;52.10;;;;;;5033649;28;20007;-73
2021/06/26 13:12:58;;;;;;;;;;;26.60;52.40;;;;;;5028197;28;19929;-73
2021/06/26 13:15:27;;;;;;;;;;;26.50;53.00;;;;;;5025993;28;19980;-74
2021/06/26 13:17:54;;;;;;;;;;;26.30;53.70;;;;;;5031820;28;19932;-74
2021/06/26 13:20:21;;;;;;;;;;;26.20;54.40;;;;;;5033087;28;19948;-74
2021/06/26 13:22:48;;;;;;;;;;;26.20;53.90;;;;;;5033384;28;20007;-74
2021/06/26 13:25:17;;;;;;;;;;;26.00;54.20;;;;;;5032938;28;19965;-70
2021/06/26 13:27:46;;;;;;;;;;;26.00;56.70;;;;;;5024334;28;20008;-72
2021/06/26 13:30:16;;;;;;;;;;;26.20;56.30;;;;;;5031458;28;19925;-72
2021/06/26 13:32:44;;;;;;;;;;;26.20;55.30;;;;;;5029656;28;20012;-73
2021/06/26 13:35:11;;;;;;;;;;;26.90;54.20;;;;;;5036144;28;20015;-73
2021/06/26 13:37:38;;;;;;;;;;;27.70;54.80;;;;;;5030732;28;19929;-74
2021/06/26 13:40:05;;;;;;;;;;;28.00;53.40;;;;;;5029961;28;19987;-75
2021/06/26 13:42:48;;;;;;;;;;;28.10;53.10;;;;;;5033047;28;19968;-71
2021/06/26 13:45:15;;;;;;;;;;;28.00;53.40;;;;;;5025873;28;20414;-72
2021/06/26 13:47:42;;;;;;;;;;;27.60;52.90;;;;;;5020130;28;20330;-73
2021/06/26 13:50:09;;;;;;;;;;;27.60;53.80;;;;;;5032925;28;20000;-72
2021/06/26 13:52:35;;;;;;;;;;;27.20;54.30;;;;;;5030992;28;20639;-72
2021/06/26 13:55:02;;;;;;;;;;;26.70;55.60;;;;;;5046340;28;19968;-71
2021/06/26 13:57:29;;;;;;;;;;;26.50;55.70;;;;;;5032177;28;19933;-71
2021/06/26 13:59:56;;;;;;;;;;;26.50;56.40;;;;;;5028717;28;20348;-72
2021/06/26 14:02:26;;;;;;;;;;;26.30;56.70;;;;;;5019984;28;19971;-71
2021/06/26 14:04:52;;;;;;;;;;;26.30;56.90;;;;;;5026672;28;19948;-74
2021/06/26 14:07:21;;;;;;;;;;;26.10;57.50;;;;;;5022954;28;20357;-74
2021/06/26 14:09:48;;;;;;;;;;;25.80;57.80;;;;;;5028061;28;20055;-73
2021/06/26 14:12:14;;;;;;;;;;;25.50;58.50;;;;;;5032800;28;20012;-74
2021/06/26 14:14:41;;;;;;;;;;;25.50;58.80;;;;;;5027266;28;19931;-73
2021/06/26 14:17:08;;;;;;;;;;;25.50;59.20;;;;;;5024034;28;20020;-74
2021/06/26 14:19:35;;;;;;;;;;;25.80;58.60;;;;;;5034647;28;19936;-74